sensor_id;sensor_type;location;lat;lon;timestamp;P1;durP1;ratioP1;P2;durP2;ratioP2
24335;SDS011;33098;52.400;16.880;2023-12-14T00:00:36;66.90;;;30.40;;
24335;SDS011;33098;52.400;16.880;2023-12-14T00:03:23;66.10;;;29.50;;
24335;SDS011;33098;52.400;16.880;2023-12-14T00:22:14;80.50;;;32.10;;
24335;SDS011;33098;52.400;16.880;2023-12-14T00:24:40;70.90;;;28.90;;
24335;SDS011;33098;52.400;16.880;2023-12-14T00:27:05;74.20;;;30.20;;
24335;SDS011;33098;52.400;16.880;2023-12-14T00:32:26;75.30;;;30.60;;
24335;SDS011;33098;52.400;16.880;2023-12-14T00:34:51;71.10;;;30.40;;
24335;SDS011;33098;52.400;16.880;2023-12-14T00:37:18;69.70;;;29.60;;
24335;SDS011;33098;52.400;16.880;2023-12-14T00:39:44;64.90;;;28.40;;
24335;SDS011;33098;52.400;16.880;2023-12-14T00:42:11;64.40;;;27.40;;
24335;SDS011;33098;52.400;16.880;2023-12-14T00:44:36;59.80;;;27.90;;
24335;SDS011;33098;52.400;16.880;2023-12-14T00:47:20;66.60;;;29.10;;
24335;SDS011;33098;52.400;16.880;2023-12-14T00:49:46;57.00;;;27.30;;
24335;SDS011;33098;52.400;16.880;2023-12-14T00:52:13;63.00;;;28.30;;
24335;SDS011;33098;52.400;16.880;2023-12-14T00:54:39;59.20;;;27.20;;
24335;SDS011;33098;52.400;16.880;2023-12-14T00:57:06;58.70;;;27.00;;
24335;SDS011;33098;52.400;16.880;2023-12-14T00:59:32;62.10;;;27.60;;
24335;SDS011;33098;52.400;16.880;2023-12-14T01:01:58;61.40;;;26.60;;
24335;SDS011;33098;52.400;16.880;2023-12-14T01:04:25;63.10;;;26.80;;
24335;SDS011;33098;52.400;16.880;2023-12-14T01:06:51;61.30;;;26.50;;
24335;SDS011;33098;52.400;16.880;2023-12-14T01:09:18;61.00;;;27.40;;
24335;SDS011;33098;52.400;16.880;2023-12-14T01:11:44;57.90;;;26.40;;
24335;SDS011;33098;52.400;16.880;2023-12-14T01:14:11;59.40;;;25.40;;
24335;SDS011;33098;52.400;16.880;2023-12-14T01:16:37;58.30;;;26.20;;
24335;SDS011;33098;52.400;16.880;2023-12-14T01:19:04;55.90;;;25.40;;
24335;SDS011;33098;52.400;16.880;2023-12-14T01:21:34;58.90;;;25.30;;
24335;SDS011;33098;52.400;16.880;2023-12-14T01:24:00;59.50;;;25.90;;
24335;SDS011;33098;52.400;16.880;2023-12-14T01:26:27;51.50;;;24.60;;
24335;SDS011;33098;52.400;16.880;2023-12-14T01:28:54;59.10;;;25.30;;
24335;SDS011;33098;52.400;16.880;2023-12-14T01:31:20;55.80;;;24.80;;
24335;SDS011;33098;52.400;16.880;2023-12-14T01:33:50;53.50;;;24.70;;
24335;SDS011;33098;52.400;16.880;2023-12-14T01:36:26;51.40;;;23.30;;
24335;SDS011;33098;52.400;16.880;2023-12-14T01:38:53;55.20;;;24.40;;
24335;SDS011;33098;52.400;16.880;2023-12-14T01:41:19;52.90;;;24.00;;
24335;SDS011;33098;52.400;16.880;2023-12-14T01:43:46;53.00;;;24.50;;
24335;SDS011;33098;52.400;16.880;2023-12-14T01:46:12;52.90;;;23.80;;
24335;SDS011;33098;52.400;16.880;2023-12-14T01:48:40;49.10;;;24.00;;
24335;SDS011;33098;52.400;16.880;2023-12-14T01:51:07;48.80;;;23.20;;
24335;SDS011;33098;52.400;16.880;2023-12-14T01:53:33;38.90;;;20.10;;
24335;SDS011;33098;52.400;16.880;2023-12-14T01:56:00;39.90;;;20.90;;
24335;SDS011;33098;52.400;16.880;2023-12-14T01:58:27;40.70;;;19.80;;
24335;SDS011;33098;52.400;16.880;2023-12-14T02:01:03;35.70;;;19.40;;
24335;SDS011;33098;52.400;16.880;2023-12-14T02:03:30;35.30;;;18.60;;
24335;SDS011;33098;52.400;16.880;2023-12-14T02:05:56;35.20;;;19.20;;
24335;SDS011;33098;52.400;16.880;2023-12-14T02:08:24;34.30;;;17.50;;
24335;SDS011;33098;52.400;16.880;2023-12-14T02:10:51;32.10;;;17.50;;
24335;SDS011;33098;52.400;16.880;2023-12-14T02:13:17;34.10;;;17.60;;
24335;SDS011;33098;52.400;16.880;2023-12-14T02:15:44;33.30;;;17.60;;
24335;SDS011;33098;52.400;16.880;2023-12-14T02:18:10;35.00;;;17.20;;
24335;SDS011;33098;52.400;16.880;2023-12-14T02:20:37;32.80;;;17.10;;
24335;SDS011;33098;52.400;16.880;2023-12-14T02:23:03;33.10;;;17.30;;
24335;SDS011;33098;52.400;16.880;2023-12-14T02:25:30;29.40;;;16.70;;
24335;SDS011;33098;52.400;16.880;2023-12-14T02:27:56;36.90;;;17.50;;
24335;SDS011;33098;52.400;16.880;2023-12-14T02:30:23;33.60;;;17.30;;
24335;SDS011;33098;52.400;16.880;2023-12-14T02:32:49;33.10;;;17.30;;
24335;SDS011;33098;52.400;16.880;2023-12-14T02:35:16;31.10;;;16.80;;
24335;SDS011;33098;52.400;16.880;2023-12-14T02:37:44;30.20;;;16.10;;
24335;SDS011;33098;52.400;16.880;2023-12-14T02:40:11;29.80;;;16.00;;
24335;SDS011;33098;52.400;16.880;2023-12-14T02:42:37;30.00;;;15.60;;
24335;SDS011;33098;52.400;16.880;2023-12-14T02:45:04;27.70;;;14.30;;
24335;SDS011;33098;52.400;16.880;2023-12-14T02:47:31;24.90;;;14.50;;
24335;SDS011;33098;52.400;16.880;2023-12-14T02:49:57;28.00;;;14.80;;
24335;SDS011;33098;52.400;16.880;2023-12-14T02:52:24;25.10;;;14.70;;
24335;SDS011;33098;52.400;16.880;2023-12-14T02:54:51;30.30;;;16.40;;
24335;SDS011;33098;52.400;16.880;2023-12-14T02:57:17;29.10;;;15.20;;
24335;SDS011;33098;52.400;16.880;2023-12-14T02:59:44;30.00;;;15.70;;
24335;SDS011;33098;52.400;16.880;2023-12-14T03:02:10;27.40;;;14.10;;
24335;SDS011;33098;52.400;16.880;2023-12-14T03:04:37;28.10;;;14.40;;
24335;SDS011;33098;52.400;16.880;2023-12-14T03:07:05;26.10;;;13.90;;
24335;SDS011;33098;52.400;16.880;2023-12-14T03:09:33;28.30;;;15.40;;
24335;SDS011;33098;52.400;16.880;2023-12-14T03:12:00;26.80;;;14.80;;
24335;SDS011;33098;52.400;16.880;2023-12-14T03:14:32;27.00;;;14.20;;
24335;SDS011;33098;52.400;16.880;2023-12-14T03:16:59;24.80;;;13.50;;
24335;SDS011;33098;52.400;16.880;2023-12-14T03:19:26;23.60;;;12.90;;
24335;SDS011;33098;52.400;16.880;2023-12-14T03:21:52;23.90;;;13.70;;
24335;SDS011;33098;52.400;16.880;2023-12-14T03:24:19;21.60;;;12.60;;
24335;SDS011;33098;52.400;16.880;2023-12-14T03:26:46;21.10;;;12.30;;
24335;SDS011;33098;52.400;16.880;2023-12-14T03:29:13;22.00;;;12.10;;
24335;SDS011;33098;52.400;16.880;2023-12-14T03:31:39;22.40;;;13.10;;
24335;SDS011;33098;52.400;16.880;2023-12-14T03:34:06;19.90;;;11.30;;
24335;SDS011;33098;52.400;16.880;2023-12-14T03:36:33;19.00;;;11.20;;
24335;SDS011;33098;52.400;16.880;2023-12-14T03:38:59;17.10;;;10.30;;
24335;SDS011;33098;52.400;16.880;2023-12-14T03:41:26;18.60;;;10.40;;
24335;SDS011;33098;52.400;16.880;2023-12-14T03:43:52;18.20;;;10.40;;
24335;SDS011;33098;52.400;16.880;2023-12-14T03:46:19;16.70;;;10.40;;
24335;SDS011;33098;52.400;16.880;2023-12-14T03:48:45;16.30;;;9.70;;
24335;SDS011;33098;52.400;16.880;2023-12-14T03:51:12;15.00;;;9.10;;
24335;SDS011;33098;52.400;16.880;2023-12-14T03:53:38;17.90;;;10.50;;
24335;SDS011;33098;52.400;16.880;2023-12-14T03:56:06;18.20;;;10.20;;
24335;SDS011;33098;52.400;16.880;2023-12-14T03:58:33;17.50;;;10.60;;
24335;SDS011;33098;52.400;16.880;2023-12-14T04:01:00;17.70;;;9.80;;
24335;SDS011;33098;52.400;16.880;2023-12-14T04:03:26;16.70;;;10.10;;
24335;SDS011;33098;52.400;16.880;2023-12-14T04:05:53;16.40;;;9.80;;
24335;SDS011;33098;52.400;16.880;2023-12-14T04:08:19;17.10;;;10.30;;
24335;SDS011;33098;52.400;16.880;2023-12-14T04:10:45;17.30;;;10.10;;
24335;SDS011;33098;52.400;16.880;2023-12-14T04:13:12;17.20;;;9.80;;
24335;SDS011;33098;52.400;16.880;2023-12-14T04:15:38;17.40;;;10.50;;
24335;SDS011;33098;52.400;16.880;2023-12-14T04:18:06;15.60;;;10.00;;
24335;SDS011;33098;52.400;16.880;2023-12-14T04:20:34;16.70;;;10.00;;
24335;SDS011;33098;52.400;16.880;2023-12-14T04:23:00;16.50;;;10.30;;
24335;SDS011;33098;52.400;16.880;2023-12-14T04:25:27;17.90;;;9.90;;
24335;SDS011;33098;52.400;16.880;2023-12-14T04:27:53;18.90;;;9.80;;
24335;SDS011;33098;52.400;16.880;2023-12-14T04:30:20;16.60;;;10.60;;
24335;SDS011;33098;52.400;16.880;2023-12-14T04:32:46;15.60;;;9.50;;
24335;SDS011;33098;52.400;16.880;2023-12-14T04:35:13;16.10;;;9.70;;
24335;SDS011;33098;52.400;16.880;2023-12-14T04:37:40;19.20;;;10.20;;
24335;SDS011;33098;52.400;16.880;2023-12-14T04:40:07;15.00;;;9.80;;
24335;SDS011;33098;52.400;16.880;2023-12-14T04:42:34;18.90;;;10.80;;
24335;SDS011;33098;52.400;16.880;2023-12-14T04:45:01;17.70;;;10.10;;
24335;SDS011;33098;52.400;16.880;2023-12-14T04:47:27;19.60;;;10.20;;
24335;SDS011;33098;52.400;16.880;2023-12-14T04:49:55;18.30;;;10.50;;
24335;SDS011;33098;52.400;16.880;2023-12-14T04:52:21;15.60;;;10.20;;
24335;SDS011;33098;52.400;16.880;2023-12-14T04:54:48;17.10;;;10.00;;
24335;SDS011;33098;52.400;16.880;2023-12-14T04:57:14;19.70;;;11.60;;
24335;SDS011;33098;52.400;16.880;2023-12-14T04:59:41;19.90;;;11.50;;
24335;SDS011;33098;52.400;16.880;2023-12-14T05:02:08;20.00;;;12.40;;
24335;SDS011;33098;52.400;16.880;2023-12-14T05:04:35;21.90;;;12.10;;
24335;SDS011;33098;52.400;16.880;2023-12-14T05:07:01;19.00;;;12.10;;
24335;SDS011;33098;52.400;16.880;2023-12-14T05:09:28;21.10;;;12.50;;
24335;SDS011;33098;52.400;16.880;2023-12-14T05:11:55;19.90;;;11.90;;
24335;SDS011;33098;52.400;16.880;2023-12-14T05:14:21;23.30;;;12.60;;
24335;SDS011;33098;52.400;16.880;2023-12-14T05:16:48;23.40;;;13.30;;
24335;SDS011;33098;52.400;16.880;2023-12-14T05:19:15;23.30;;;13.40;;
24335;SDS011;33098;52.400;16.880;2023-12-14T05:21:41;20.40;;;12.70;;
24335;SDS011;33098;52.400;16.880;2023-12-14T05:24:08;23.40;;;13.40;;
24335;SDS011;33098;52.400;16.880;2023-12-14T05:26:34;20.80;;;12.70;;
24335;SDS011;33098;52.400;16.880;2023-12-14T05:29:01;21.40;;;13.00;;
24335;SDS011;33098;52.400;16.880;2023-12-14T05:31:27;23.40;;;13.80;;
24335;SDS011;33098;52.400;16.880;2023-12-14T05:33:54;22.10;;;13.10;;
24335;SDS011;33098;52.400;16.880;2023-12-14T05:36:20;24.00;;;13.70;;
24335;SDS011;33098;52.400;16.880;2023-12-14T05:38:47;22.90;;;13.10;;
24335;SDS011;33098;52.400;16.880;2023-12-14T05:41:14;21.50;;;12.80;;
24335;SDS011;33098;52.400;16.880;2023-12-14T05:43:40;23.40;;;13.30;;
24335;SDS011;33098;52.400;16.880;2023-12-14T05:46:07;23.30;;;13.60;;
24335;SDS011;33098;52.400;16.880;2023-12-14T05:48:34;24.00;;;13.40;;
24335;SDS011;33098;52.400;16.880;2023-12-14T05:51:00;23.20;;;13.30;;
24335;SDS011;33098;52.400;16.880;2023-12-14T05:53:28;23.20;;;14.60;;
24335;SDS011;33098;52.400;16.880;2023-12-14T05:55:55;28.20;;;15.20;;
24335;SDS011;33098;52.400;16.880;2023-12-14T05:58:21;25.00;;;14.80;;
24335;SDS011;33098;52.400;16.880;2023-12-14T06:00:48;26.70;;;14.90;;
24335;SDS011;33098;52.400;16.880;2023-12-14T06:03:14;28.50;;;15.60;;
24335;SDS011;33098;52.400;16.880;2023-12-14T06:05:41;25.00;;;14.70;;
24335;SDS011;33098;52.400;16.880;2023-12-14T06:08:07;25.00;;;14.30;;
24335;SDS011;33098;52.400;16.880;2023-12-14T06:10:34;25.70;;;14.60;;
24335;SDS011;33098;52.400;16.880;2023-12-14T06:13:01;26.40;;;14.60;;
24335;SDS011;33098;52.400;16.880;2023-12-14T06:15:27;23.70;;;14.20;;
24335;SDS011;33098;52.400;16.880;2023-12-14T06:17:54;25.30;;;14.10;;
24335;SDS011;33098;52.400;16.880;2023-12-14T06:20:20;24.50;;;14.00;;
24335;SDS011;33098;52.400;16.880;2023-12-14T06:22:47;22.80;;;13.40;;
24335;SDS011;33098;52.400;16.880;2023-12-14T06:25:14;26.30;;;14.80;;
24335;SDS011;33098;52.400;16.880;2023-12-14T06:27:41;23.90;;;14.30;;
24335;SDS011;33098;52.400;16.880;2023-12-14T06:30:08;22.20;;;13.50;;
24335;SDS011;33098;52.400;16.880;2023-12-14T06:32:36;23.80;;;15.00;;
24335;SDS011;33098;52.400;16.880;2023-12-14T06:35:02;23.80;;;13.80;;
24335;SDS011;33098;52.400;16.880;2023-12-14T06:37:29;25.30;;;14.20;;
24335;SDS011;33098;52.400;16.880;2023-12-14T06:39:55;23.50;;;13.40;;
24335;SDS011;33098;52.400;16.880;2023-12-14T06:42:22;22.40;;;13.60;;
24335;SDS011;33098;52.400;16.880;2023-12-14T06:44:48;23.40;;;14.20;;
24335;SDS011;33098;52.400;16.880;2023-12-14T06:47:15;22.10;;;12.60;;
24335;SDS011;33098;52.400;16.880;2023-12-14T06:49:41;21.80;;;13.00;;
24335;SDS011;33098;52.400;16.880;2023-12-14T06:52:08;22.20;;;13.40;;
24335;SDS011;33098;52.400;16.880;2023-12-14T06:54:35;22.90;;;13.30;;
24335;SDS011;33098;52.400;16.880;2023-12-14T06:57:02;20.30;;;13.00;;
24335;SDS011;33098;52.400;16.880;2023-12-14T06:59:29;22.00;;;12.50;;
24335;SDS011;33098;52.400;16.880;2023-12-14T07:01:56;22.70;;;12.50;;
24335;SDS011;33098;52.400;16.880;2023-12-14T07:04:22;24.00;;;13.80;;
24335;SDS011;33098;52.400;16.880;2023-12-14T07:06:52;24.70;;;13.00;;
24335;SDS011;33098;52.400;16.880;2023-12-14T07:09:19;22.10;;;13.10;;
24335;SDS011;33098;52.400;16.880;2023-12-14T07:11:46;22.20;;;12.70;;
24335;SDS011;33098;52.400;16.880;2023-12-14T07:14:13;20.80;;;12.40;;
24335;SDS011;33098;52.400;16.880;2023-12-14T07:16:41;22.40;;;12.20;;
24335;SDS011;33098;52.400;16.880;2023-12-14T07:19:08;20.70;;;12.50;;
24335;SDS011;33098;52.400;16.880;2023-12-14T07:21:36;19.60;;;12.20;;
24335;SDS011;33098;52.400;16.880;2023-12-14T07:24:03;21.70;;;13.00;;
24335;SDS011;33098;52.400;16.880;2023-12-14T07:26:29;21.40;;;13.20;;
24335;SDS011;33098;52.400;16.880;2023-12-14T07:28:56;20.50;;;12.60;;
24335;SDS011;33098;52.400;16.880;2023-12-14T07:31:22;22.90;;;13.50;;
24335;SDS011;33098;52.400;16.880;2023-12-14T07:33:49;20.20;;;12.40;;
24335;SDS011;33098;52.400;16.880;2023-12-14T07:36:15;23.10;;;12.40;;
24335;SDS011;33098;52.400;16.880;2023-12-14T07:38:42;21.50;;;13.10;;
24335;SDS011;33098;52.400;16.880;2023-12-14T07:41:09;22.60;;;13.20;;
24335;SDS011;33098;52.400;16.880;2023-12-14T07:43:35;19.90;;;12.00;;
24335;SDS011;33098;52.400;16.880;2023-12-14T07:46:01;18.80;;;12.40;;
24335;SDS011;33098;52.400;16.880;2023-12-14T07:48:28;21.10;;;13.40;;
24335;SDS011;33098;52.400;16.880;2023-12-14T07:50:55;22.90;;;13.10;;
24335;SDS011;33098;52.400;16.880;2023-12-14T07:53:21;21.30;;;13.10;;
24335;SDS011;33098;52.400;16.880;2023-12-14T07:55:48;21.70;;;13.00;;
24335;SDS011;33098;52.400;16.880;2023-12-14T07:58:14;22.40;;;13.10;;
24335;SDS011;33098;52.400;16.880;2023-12-14T08:00:41;22.50;;;12.50;;
24335;SDS011;33098;52.400;16.880;2023-12-14T08:03:07;23.50;;;14.70;;
24335;SDS011;33098;52.400;16.880;2023-12-14T08:05:34;22.40;;;12.80;;
24335;SDS011;33098;52.400;16.880;2023-12-14T08:08:00;21.10;;;12.70;;
24335;SDS011;33098;52.400;16.880;2023-12-14T08:10:27;20.90;;;12.50;;
24335;SDS011;33098;52.400;16.880;2023-12-14T08:12:53;21.10;;;12.80;;
24335;SDS011;33098;52.400;16.880;2023-12-14T08:15:20;21.60;;;12.80;;
24335;SDS011;33098;52.400;16.880;2023-12-14T08:17:46;19.70;;;12.70;;
24335;SDS011;33098;52.400;16.880;2023-12-14T08:20:13;21.70;;;13.10;;
24335;SDS011;33098;52.400;16.880;2023-12-14T08:22:39;24.50;;;13.20;;
24335;SDS011;33098;52.400;16.880;2023-12-14T08:25:11;22.00;;;13.10;;
24335;SDS011;33098;52.400;16.880;2023-12-14T08:27:40;24.20;;;13.60;;
24335;SDS011;33098;52.400;16.880;2023-12-14T08:30:07;20.00;;;12.60;;
24335;SDS011;33098;52.400;16.880;2023-12-14T08:32:34;23.10;;;13.70;;
24335;SDS011;33098;52.400;16.880;2023-12-14T08:35:01;20.20;;;12.90;;
24335;SDS011;33098;52.400;16.880;2023-12-14T08:37:28;18.50;;;12.00;;
24335;SDS011;33098;52.400;16.880;2023-12-14T08:39:54;21.00;;;12.60;;
24335;SDS011;33098;52.400;16.880;2023-12-14T08:42:22;19.70;;;12.80;;
24335;SDS011;33098;52.400;16.880;2023-12-14T08:44:48;21.50;;;12.60;;
24335;SDS011;33098;52.400;16.880;2023-12-14T08:47:15;20.60;;;12.60;;
24335;SDS011;33098;52.400;16.880;2023-12-14T08:49:42;20.10;;;12.00;;
24335;SDS011;33098;52.400;16.880;2023-12-14T08:52:08;21.40;;;12.30;;
24335;SDS011;33098;52.400;16.880;2023-12-14T08:54:37;17.60;;;12.00;;
24335;SDS011;33098;52.400;16.880;2023-12-14T08:57:04;19.20;;;12.20;;
24335;SDS011;33098;52.400;16.880;2023-12-14T08:59:31;21.40;;;12.30;;
24335;SDS011;33098;52.400;16.880;2023-12-14T09:01:57;21.10;;;12.70;;
24335;SDS011;33098;52.400;16.880;2023-12-14T09:04:24;19.70;;;13.40;;
24335;SDS011;33098;52.400;16.880;2023-12-14T09:06:51;18.70;;;12.30;;
24335;SDS011;33098;52.400;16.880;2023-12-14T09:09:18;18.00;;;11.70;;
24335;SDS011;33098;52.400;16.880;2023-12-14T09:11:45;17.80;;;11.40;;
24335;SDS011;33098;52.400;16.880;2023-12-14T09:14:11;19.50;;;11.30;;
24335;SDS011;33098;52.400;16.880;2023-12-14T09:16:38;20.30;;;12.50;;
24335;SDS011;33098;52.400;16.880;2023-12-14T09:19:04;20.10;;;12.40;;
24335;SDS011;33098;52.400;16.880;2023-12-14T09:21:31;16.90;;;11.90;;
24335;SDS011;33098;52.400;16.880;2023-12-14T09:23:57;21.00;;;11.50;;
24335;SDS011;33098;52.400;16.880;2023-12-14T09:26:24;18.10;;;11.30;;
24335;SDS011;33098;52.400;16.880;2023-12-14T09:28:50;17.50;;;12.30;;
24335;SDS011;33098;52.400;16.880;2023-12-14T09:31:17;19.10;;;12.40;;
24335;SDS011;33098;52.400;16.880;2023-12-14T09:33:43;18.20;;;11.20;;
24335;SDS011;33098;52.400;16.880;2023-12-14T09:36:09;17.10;;;11.60;;
24335;SDS011;33098;52.400;16.880;2023-12-14T09:38:36;18.90;;;12.00;;
24335;SDS011;33098;52.400;16.880;2023-12-14T09:41:03;15.80;;;10.80;;
24335;SDS011;33098;52.400;16.880;2023-12-14T09:43:30;17.80;;;11.50;;
24335;SDS011;33098;52.400;16.880;2023-12-14T09:45:57;16.50;;;11.00;;
24335;SDS011;33098;52.400;16.880;2023-12-14T09:48:23;15.70;;;10.60;;
24335;SDS011;33098;52.400;16.880;2023-12-14T09:50:50;15.50;;;10.50;;
24335;SDS011;33098;52.400;16.880;2023-12-14T09:53:18;17.30;;;10.80;;
24335;SDS011;33098;52.400;16.880;2023-12-14T09:55:44;16.40;;;10.80;;
24335;SDS011;33098;52.400;16.880;2023-12-14T09:58:11;13.60;;;9.90;;
24335;SDS011;33098;52.400;16.880;2023-12-14T10:00:39;13.80;;;10.10;;
24335;SDS011;33098;52.400;16.880;2023-12-14T10:03:23;14.00;;;10.50;;
24335;SDS011;33098;52.400;16.880;2023-12-14T10:05:52;16.40;;;10.90;;
24335;SDS011;33098;52.400;16.880;2023-12-14T10:08:20;21.30;;;13.00;;
24335;SDS011;33098;52.400;16.880;2023-12-14T10:10:48;18.60;;;12.50;;
24335;SDS011;33098;52.400;16.880;2023-12-14T10:16:01;17.20;;;11.90;;
24335;SDS011;33098;52.400;16.880;2023-12-14T10:18:28;16.80;;;11.60;;
24335;SDS011;33098;52.400;16.880;2023-12-14T10:20:55;18.90;;;12.10;;
24335;SDS011;33098;52.400;16.880;2023-12-14T10:23:23;17.50;;;12.10;;
24335;SDS011;33098;52.400;16.880;2023-12-14T10:25:50;16.90;;;11.90;;
24335;SDS011;33098;52.400;16.880;2023-12-14T10:28:19;19.00;;;12.40;;
24335;SDS011;33098;52.400;16.880;2023-12-14T10:30:45;18.10;;;13.20;;
24335;SDS011;33098;52.400;16.880;2023-12-14T10:33:12;17.70;;;12.60;;
24335;SDS011;33098;52.400;16.880;2023-12-14T10:35:40;18.20;;;12.10;;
24335;SDS011;33098;52.400;16.880;2023-12-14T10:38:08;19.70;;;11.90;;
24335;SDS011;33098;52.400;16.880;2023-12-14T10:40:36;15.10;;;10.90;;
24335;SDS011;33098;52.400;16.880;2023-12-14T10:45:33;15.30;;;10.40;;
24335;SDS011;33098;52.400;16.880;2023-12-14T10:48:00;15.40;;;9.90;;
24335;SDS011;33098;52.400;16.880;2023-12-14T10:50:30;13.80;;;9.90;;
24335;SDS011;33098;52.400;16.880;2023-12-14T10:52:57;16.80;;;10.00;;
24335;SDS011;33098;52.400;16.880;2023-12-14T10:55:27;14.10;;;9.40;;
24335;SDS011;33098;52.400;16.880;2023-12-14T10:57:57;12.90;;;9.40;;
24335;SDS011;33098;52.400;16.880;2023-12-14T11:00:25;12.90;;;8.70;;
24335;SDS011;33098;52.400;16.880;2023-12-14T11:02:51;13.20;;;9.70;;
24335;SDS011;33098;52.400;16.880;2023-12-14T11:05:19;12.30;;;8.50;;
24335;SDS011;33098;52.400;16.880;2023-12-14T11:07:53;13.60;;;9.50;;
24335;SDS011;33098;52.400;16.880;2023-12-14T11:10:22;12.70;;;8.70;;
24335;SDS011;33098;52.400;16.880;2023-12-14T11:15:48;13.10;;;9.20;;
24335;SDS011;33098;52.400;16.880;2023-12-14T11:20:52;14.60;;;9.60;;
24335;SDS011;33098;52.400;16.880;2023-12-14T11:23:33;13.50;;;9.20;;
24335;SDS011;33098;52.400;16.880;2023-12-14T11:26:03;13.60;;;9.90;;
24335;SDS011;33098;52.400;16.880;2023-12-14T11:28:38;14.90;;;10.50;;
24335;SDS011;33098;52.400;16.880;2023-12-14T11:31:12;15.50;;;10.40;;
24335;SDS011;33098;52.400;16.880;2023-12-14T11:33:39;14.10;;;10.20;;
24335;SDS011;33098;52.400;16.880;2023-12-14T11:36:05;16.60;;;11.10;;
24335;SDS011;33098;52.400;16.880;2023-12-14T11:38:32;18.10;;;10.90;;
24335;SDS011;33098;52.400;16.880;2023-12-14T11:40:59;14.90;;;10.70;;
24335;SDS011;33098;52.400;16.880;2023-12-14T11:43:26;16.10;;;10.90;;
24335;SDS011;33098;52.400;16.880;2023-12-14T11:45:53;13.60;;;10.00;;
24335;SDS011;33098;52.400;16.880;2023-12-14T11:48:21;14.00;;;10.50;;
24335;SDS011;33098;52.400;16.880;2023-12-14T11:50:48;13.10;;;9.90;;
24335;SDS011;33098;52.400;16.880;2023-12-14T11:53:14;14.90;;;10.50;;
24335;SDS011;33098;52.400;16.880;2023-12-14T11:55:41;15.60;;;10.60;;
24335;SDS011;33098;52.400;16.880;2023-12-14T11:58:11;14.80;;;9.70;;
24335;SDS011;33098;52.400;16.880;2023-12-14T12:00:40;16.00;;;11.10;;
24335;SDS011;33098;52.400;16.880;2023-12-14T12:03:16;14.70;;;10.20;;
24335;SDS011;33098;52.400;16.880;2023-12-14T12:05:46;13.70;;;9.80;;
24335;SDS011;33098;52.400;16.880;2023-12-14T12:08:15;13.20;;;10.10;;
24335;SDS011;33098;52.400;16.880;2023-12-14T12:10:45;15.20;;;10.10;;
24335;SDS011;33098;52.400;16.880;2023-12-14T12:13:14;16.50;;;10.20;;
24335;SDS011;33098;52.400;16.880;2023-12-14T12:15:44;14.80;;;10.20;;
24335;SDS011;33098;52.400;16.880;2023-12-14T12:18:12;15.90;;;10.80;;
24335;SDS011;33098;52.400;16.880;2023-12-14T12:20:40;13.80;;;10.30;;
24335;SDS011;33098;52.400;16.880;2023-12-14T12:23:07;14.70;;;10.30;;
24335;SDS011;33098;52.400;16.880;2023-12-14T12:25:34;15.00;;;10.30;;
24335;SDS011;33098;52.400;16.880;2023-12-14T12:28:02;15.80;;;10.50;;
24335;SDS011;33098;52.400;16.880;2023-12-14T12:30:32;14.70;;;10.40;;
24335;SDS011;33098;52.400;16.880;2023-12-14T12:32:59;15.60;;;11.00;;
24335;SDS011;33098;52.400;16.880;2023-12-14T12:35:25;17.60;;;11.00;;
24335;SDS011;33098;52.400;16.880;2023-12-14T12:37:52;15.70;;;10.30;;
24335;SDS011;33098;52.400;16.880;2023-12-14T12:40:22;15.40;;;10.20;;
24335;SDS011;33098;52.400;16.880;2023-12-14T12:42:51;14.60;;;9.90;;
24335;SDS011;33098;52.400;16.880;2023-12-14T12:45:18;15.30;;;10.00;;
24335;SDS011;33098;52.400;16.880;2023-12-14T12:47:45;16.50;;;9.80;;
24335;SDS011;33098;52.400;16.880;2023-12-14T12:50:12;14.30;;;10.00;;
24335;SDS011;33098;52.400;16.880;2023-12-14T12:52:38;14.70;;;10.00;;
24335;SDS011;33098;52.400;16.880;2023-12-14T12:55:05;14.90;;;9.80;;
24335;SDS011;33098;52.400;16.880;2023-12-14T12:57:33;14.10;;;9.30;;
24335;SDS011;33098;52.400;16.880;2023-12-14T13:00:00;16.70;;;9.00;;
24335;SDS011;33098;52.400;16.880;2023-12-14T13:02:27;14.70;;;10.10;;
24335;SDS011;33098;52.400;16.880;2023-12-14T13:04:53;13.00;;;8.70;;
24335;SDS011;33098;52.400;16.880;2023-12-14T13:07:20;14.10;;;8.80;;
24335;SDS011;33098;52.400;16.880;2023-12-14T13:09:46;12.70;;;8.70;;
24335;SDS011;33098;52.400;16.880;2023-12-14T13:12:13;14.10;;;9.10;;
24335;SDS011;33098;52.400;16.880;2023-12-14T13:14:40;14.80;;;9.40;;
24335;SDS011;33098;52.400;16.880;2023-12-14T13:17:06;15.20;;;9.80;;
24335;SDS011;33098;52.400;16.880;2023-12-14T13:19:34;13.90;;;9.70;;
24335;SDS011;33098;52.400;16.880;2023-12-14T13:22:01;14.10;;;8.80;;
24335;SDS011;33098;52.400;16.880;2023-12-14T13:24:28;12.90;;;8.60;;
24335;SDS011;33098;52.400;16.880;2023-12-14T13:26:55;12.20;;;8.20;;
24335;SDS011;33098;52.400;16.880;2023-12-14T13:29:22;13.00;;;8.20;;
24335;SDS011;33098;52.400;16.880;2023-12-14T13:31:49;12.90;;;8.50;;
24335;SDS011;33098;52.400;16.880;2023-12-14T13:34:15;11.50;;;8.00;;
24335;SDS011;33098;52.400;16.880;2023-12-14T13:36:42;13.80;;;8.50;;
24335;SDS011;33098;52.400;16.880;2023-12-14T13:39:09;13.10;;;8.10;;
24335;SDS011;33098;52.400;16.880;2023-12-14T13:41:36;11.60;;;7.50;;
24335;SDS011;33098;52.400;16.880;2023-12-14T13:44:02;12.00;;;8.50;;
24335;SDS011;33098;52.400;16.880;2023-12-14T13:46:29;13.10;;;8.70;;
24335;SDS011;33098;52.400;16.880;2023-12-14T13:48:55;14.70;;;9.40;;
24335;SDS011;33098;52.400;16.880;2023-12-14T13:51:22;11.40;;;8.40;;
24335;SDS011;33098;52.400;16.880;2023-12-14T13:53:48;14.30;;;8.60;;
24335;SDS011;33098;52.400;16.880;2023-12-14T13:56:15;13.00;;;8.30;;
24335;SDS011;33098;52.400;16.880;2023-12-14T13:58:42;14.50;;;8.40;;
24335;SDS011;33098;52.400;16.880;2023-12-14T14:01:08;11.10;;;7.80;;
24335;SDS011;33098;52.400;16.880;2023-12-14T14:03:35;11.40;;;7.50;;
24335;SDS011;33098;52.400;16.880;2023-12-14T14:06:04;12.60;;;7.60;;
24335;SDS011;33098;52.400;16.880;2023-12-14T14:08:31;10.90;;;7.50;;
24335;SDS011;33098;52.400;16.880;2023-12-14T14:10:58;12.00;;;7.70;;
24335;SDS011;33098;52.400;16.880;2023-12-14T14:13:25;11.40;;;7.80;;
24335;SDS011;33098;52.400;16.880;2023-12-14T14:15:52;10.70;;;7.30;;
24335;SDS011;33098;52.400;16.880;2023-12-14T14:18:19;9.70;;;7.10;;
24335;SDS011;33098;52.400;16.880;2023-12-14T14:20:46;11.20;;;7.70;;
24335;SDS011;33098;52.400;16.880;2023-12-14T14:23:13;10.60;;;7.10;;
24335;SDS011;33098;52.400;16.880;2023-12-14T14:25:39;10.50;;;7.50;;
24335;SDS011;33098;52.400;16.880;2023-12-14T14:28:06;9.90;;;7.00;;
24335;SDS011;33098;52.400;16.880;2023-12-14T14:30:33;14.70;;;9.10;;
24335;SDS011;33098;52.400;16.880;2023-12-14T14:32:59;10.10;;;6.80;;
24335;SDS011;33098;52.400;16.880;2023-12-14T14:35:26;8.80;;;6.80;;
24335;SDS011;33098;52.400;16.880;2023-12-14T14:37:53;12.40;;;7.80;;
24335;SDS011;33098;52.400;16.880;2023-12-14T14:40:20;11.10;;;7.30;;